aviador You're here:

RKSI Decoded Metar

CHAJANG NI in KOREA
Report Time2017-03-30 18:30:00
UTC Time2017-03-30 18:36:59
Flight Rules ifr IFR
Wind190° at 05 kt
W.Decomp.*RWY 16: 3.9 kt HW 3.1 kt RCW
RWY 15: 3.3 kt HW 3.7 kt RCW
W.Rank190° ranks 30
Current wind is below 190° avg. (7.1)
Visibility2900 m
Phenomena:Mist
Clouds:N/A
Expected CloudBase > 800 ft AGL from Temp-Dew spread
CeilingNone
Temp08°C (ISA -7)
Dew Point06°C (87% RH)
AAT5.3°C
QNH1019 hPa
Density Alt-889 ft
Elevation23 ft
Report Wrong Elevation
Raw Report
METAR RKSI 301830Z 19005KT 2900 BR NSC 08/06 Q1019 NOSIG=

Extra information for RKSI:More info

Metar Taf Metar & Taf Last 4 Metars F.Rules Stats Wind Profile Meteogram Temp Stats Airport Information Weather charts Add Link Nearby VenuesMetar ALERT Operation Metar Decoded Social comments